Time;durP1;ratioP1;P1;durP2;ratioP2;P2;SDS_P1;SDS_P2;PMS_P1;PMS_P2;Temp;Humidity;BMP_temperature;BMP_pressure;BME280_temperature;BME280_humidity;BME280_pressure;Samples;Min_cycle;Max_cycle;Signal;HPM_P1;HPM_P2
2023/12/10 00:00:21;;;;;;;196.60;62.85;;;;;;;;;;6288367;28;20052;-61
2023/12/10 00:03:42;;;;;;;200.60;63.90;;;;;;;;;;6283637;28;20052;-62
2023/12/10 00:06:42;;;;;;;187.40;61.10;;;;;;;;;;6273394;28;20565;-61
2023/12/10 00:09:43;;;;;;;181.32;62.40;;;;;;;;;;6265188;28;20498;-61
2023/12/10 00:12:44;;;;;;;172.55;60.67;;;;;;;;;;6273767;28;20045;-61
2023/12/10 00:16:04;;;;;;;188.35;63.33;;;;;;;;;;6261187;28;20049;-62
2023/12/10 00:19:04;;;;;;;182.27;60.83;;;;;;;;;;6269041;28;20088;-61
2023/12/10 00:22:05;;;;;;;190.23;60.92;;;;;;;;;;6264475;28;20049;-61
2023/12/10 00:25:06;;;;;;;185.98;60.97;;;;;;;;;;6286041;28;20056;-61
2023/12/10 00:28:07;;;;;;;190.45;61.45;;;;;;;;;;6280711;28;20053;-61
2023/12/10 00:31:08;;;;;;;171.40;59.25;;;;;;;;;;6288191;28;20040;-61
2023/12/10 00:34:09;;;;;;;179.98;58.95;;;;;;;;;;6286256;28;20063;-61
2023/12/10 00:37:10;;;;;;;169.68;55.97;;;;;;;;;;6273027;28;20045;-61
2023/12/10 00:40:11;;;;;;;180.63;55.40;;;;;;;;;;6273725;28;20160;-61
2023/12/10 00:43:14;;;;;;;169.27;53.95;;;;;;;;;;6269233;28;20072;-61
2023/12/10 00:46:15;;;;;;;166.40;55.35;;;;;;;;;;6262395;28;20049;-61
2023/12/10 00:49:15;;;;;;;166.82;53.03;;;;;;;;;;6279526;28;20048;-61
2023/12/10 00:52:17;;;;;;;158.40;52.72;;;;;;;;;;6283217;28;20050;-61
2023/12/10 00:55:17;;;;;;;167.00;53.78;;;;;;;;;;6278451;28;20049;-60
2023/12/10 00:58:18;;;;;;;158.40;52.75;;;;;;;;;;6285280;28;20536;-61
2023/12/10 01:01:18;;;;;;;160.73;52.00;;;;;;;;;;6267944;28;20498;-61
2023/12/10 01:04:19;;;;;;;149.27;52.30;;;;;;;;;;6264847;28;20048;-61
2023/12/10 01:07:20;;;;;;;152.98;52.83;;;;;;;;;;6276170;28;20048;-61
2023/12/10 01:10:21;;;;;;;154.18;50.00;;;;;;;;;;6285232;28;20071;-61
2023/12/10 01:13:24;;;;;;;150.57;54.40;;;;;;;;;;6271887;28;20037;-61
2023/12/10 01:16:25;;;;;;;151.65;49.95;;;;;;;;;;6274661;28;20041;-61
2023/12/10 01:19:26;;;;;;;148.82;51.47;;;;;;;;;;6263591;28;20478;-61
2023/12/10 01:22:28;;;;;;;141.73;51.45;;;;;;;;;;6258607;28;20165;-61
2023/12/10 01:25:29;;;;;;;146.23;50.53;;;;;;;;;;6284174;28;20132;-61
2023/12/10 01:28:30;;;;;;;144.13;49.08;;;;;;;;;;6276747;28;20041;-62
2023/12/10 01:31:34;;;;;;;161.40;50.90;;;;;;;;;;6275295;28;20470;-61
2023/12/10 01:34:35;;;;;;;147.30;51.53;;;;;;;;;;6276005;28;20044;-60
2023/12/10 01:37:35;;;;;;;129.10;46.70;;;;;;;;;;6274595;28;20182;-61
2023/12/10 01:40:36;;;;;;;140.63;47.05;;;;;;;;;;6265401;28;20045;-62
2023/12/10 01:43:37;;;;;;;138.93;46.60;;;;;;;;;;6280192;28;20063;-61
2023/12/10 01:46:38;;;;;;;137.50;48.53;;;;;;;;;;6275265;28;20229;-61
2023/12/10 01:49:39;;;;;;;141.88;49.33;;;;;;;;;;6261707;28;20082;-61
2023/12/10 01:52:41;;;;;;;133.93;46.75;;;;;;;;;;6270018;28;20052;-61
2023/12/10 01:55:43;;;;;;;137.60;47.65;;;;;;;;;;6278530;28;20041;-61
2023/12/10 01:58:44;;;;;;;151.43;47.92;;;;;;;;;;6266731;28;20128;-60
2023/12/10 02:01:48;;;;;;;144.63;48.97;;;;;;;;;;6265783;28;20148;-62
2023/12/10 02:04:51;;;;;;;136.73;45.92;;;;;;;;;;6283172;28;20105;-62
2023/12/10 02:07:53;;;;;;;133.52;46.20;;;;;;;;;;6274343;28;20044;-60
2023/12/10 02:10:53;;;;;;;141.15;48.08;;;;;;;;;;6272394;28;20044;-62
2023/12/10 02:13:54;;;;;;;138.82;46.40;;;;;;;;;;6267487;28;20518;-61
2023/12/10 02:16:55;;;;;;;144.43;48.90;;;;;;;;;;6274757;28;20047;-62
2023/12/10 02:19:55;;;;;;;138.65;47.63;;;;;;;;;;6265600;28;20057;-62
2023/12/10 02:23:07;;;;;;;140.13;48.22;;;;;;;;;;6269360;28;20844;-61
2023/12/10 02:26:12;;;;;;;142.90;46.58;;;;;;;;;;6262506;28;20044;-60
2023/12/10 02:29:13;;;;;;;129.48;46.47;;;;;;;;;;6267818;28;20051;-60
2023/12/10 02:32:14;;;;;;;123.65;44.38;;;;;;;;;;6286519;28;20040;-63
2023/12/10 02:35:15;;;;;;;127.70;46.10;;;;;;;;;;6281468;28;20475;-62
2023/12/10 02:38:20;;;;;;;125.43;45.28;;;;;;;;;;6274331;28;20063;-61
2023/12/10 02:41:21;;;;;;;127.05;44.25;;;;;;;;;;6271815;28;20090;-62
2023/12/10 02:44:23;;;;;;;124.38;44.22;;;;;;;;;;6282279;28;20770;-63
2023/12/10 02:47:24;;;;;;;123.20;44.65;;;;;;;;;;6263228;28;20054;-63
2023/12/10 02:50:24;;;;;;;131.52;44.78;;;;;;;;;;6268525;28;20049;-63
2023/12/10 02:53:25;;;;;;;118.03;44.47;;;;;;;;;;6273618;28;20044;-63
2023/12/10 02:56:26;;;;;;;129.82;45.55;;;;;;;;;;6268323;28;20041;-62
2023/12/10 02:59:27;;;;;;;129.35;44.00;;;;;;;;;;6279180;28;20123;-61
2023/12/10 03:02:27;;;;;;;128.93;45.40;;;;;;;;;;6282215;28;20527;-62
2023/12/10 03:05:28;;;;;;;124.95;41.67;;;;;;;;;;6278790;28;20218;-60
2023/12/10 03:08:28;;;;;;;119.80;41.72;;;;;;;;;;6270540;28;20044;-60
2023/12/10 03:11:29;;;;;;;121.55;42.97;;;;;;;;;;6258712;28;20773;-62
2023/12/10 03:14:32;;;;;;;117.55;40.70;;;;;;;;;;6280254;28;20042;-60
2023/12/10 03:17:32;;;;;;;124.65;42.72;;;;;;;;;;6272276;28;20037;-60
2023/12/10 03:20:33;;;;;;;123.43;43.45;;;;;;;;;;6255204;28;20483;-62
2023/12/10 03:23:34;;;;;;;123.35;43.55;;;;;;;;;;6276656;28;20616;-61
2023/12/10 03:26:34;;;;;;;116.43;40.40;;;;;;;;;;6278412;28;20052;-60
2023/12/10 03:29:35;;;;;;;121.18;42.13;;;;;;;;;;6278600;28;20072;-62
2023/12/10 03:32:36;;;;;;;126.82;41.95;;;;;;;;;;6282619;28;20045;-60
2023/12/10 03:35:36;;;;;;;120.20;44.15;;;;;;;;;;6267574;28;20143;-62
2023/12/10 03:38:37;;;;;;;132.15;43.45;;;;;;;;;;6279483;28;20037;-60
2023/12/10 03:41:38;;;;;;;128.27;45.42;;;;;;;;;;6277480;28;20140;-60
2023/12/10 03:44:40;;;;;;;150.68;49.58;;;;;;;;;;6275315;28;20045;-62
2023/12/10 03:47:46;;;;;;;;;;;;;;;;;;6282290;28;20051;-60
2023/12/10 03:50:47;;;;;;;215.30;66.63;;;;;;;;;;6277574;28;20083;-60
2023/12/10 03:53:47;;;;;;;192.77;59.17;;;;;;;;;;6289651;28;20048;-60
2023/12/10 03:56:48;;;;;;;129.57;46.22;;;;;;;;;;6273296;28;20476;-61
2023/12/10 03:59:49;;;;;;;115.95;43.47;;;;;;;;;;6282503;28;20049;-61
2023/12/10 04:02:50;;;;;;;112.57;40.03;;;;;;;;;;6287913;28;20188;-61
2023/12/10 04:05:50;;;;;;;120.88;40.88;;;;;;;;;;6279528;28;20148;-61
2023/12/10 04:08:51;;;;;;;110.10;38.10;;;;;;;;;;6272845;28;20407;-60
2023/12/10 04:11:55;;;;;;;117.97;40.67;;;;;;;;;;6289871;28;20447;-60
2023/12/10 04:14:56;;;;;;;112.50;42.38;;;;;;;;;;6290118;28;20040;-61
2023/12/10 04:17:57;;;;;;;122.30;43.28;;;;;;;;;;6285966;28;20135;-60
2023/12/10 04:20:57;;;;;;;125.20;43.30;;;;;;;;;;6276359;28;20068;-61
2023/12/10 04:23:58;;;;;;;125.97;44.65;;;;;;;;;;6285691;28;20547;-63
2023/12/10 04:26:59;;;;;;;129.82;44.85;;;;;;;;;;6275317;28;20133;-63
2023/12/10 04:30:00;;;;;;;117.40;40.90;;;;;;;;;;6280461;28;20478;-61
2023/12/10 04:33:00;;;;;;;115.45;39.50;;;;;;;;;;6286356;28;20854;-60
2023/12/10 04:36:01;;;;;;;126.00;41.00;;;;;;;;;;6279281;28;20094;-62
2023/12/10 04:39:02;;;;;;;118.72;40.65;;;;;;;;;;6278045;28;20457;-63
2023/12/10 04:42:03;;;;;;;121.25;41.65;;;;;;;;;;6292705;28;20053;-63
2023/12/10 04:45:09;;;;;;;120.05;42.40;;;;;;;;;;6287951;28;20483;-61
2023/12/10 04:48:12;;;;;;;117.35;42.88;;;;;;;;;;6279165;28;20109;-62
2023/12/10 04:51:13;;;;;;;127.45;42.53;;;;;;;;;;6283267;28;20461;-62
2023/12/10 04:54:14;;;;;;;125.78;42.83;;;;;;;;;;6284680;28;20052;-62
2023/12/10 04:57:14;;;;;;;119.18;43.25;;;;;;;;;;6278922;28;20041;-62
2023/12/10 05:00:16;;;;;;;105.97;39.35;;;;;;;;;;6285555;28;20045;-62
2023/12/10 05:03:16;;;;;;;113.53;40.38;;;;;;;;;;6289460;28;20094;-61
2023/12/10 05:06:17;;;;;;;118.18;42.05;;;;;;;;;;6288494;28;20076;-62
2023/12/10 05:09:17;;;;;;;144.68;48.20;;;;;;;;;;6252020;28;20420;-61
2023/12/10 05:12:18;;;;;;;140.13;47.08;;;;;;;;;;6290440;28;20414;-61
2023/12/10 05:15:19;;;;;;;142.65;49.08;;;;;;;;;;6286112;28;20394;-62
2023/12/10 05:18:20;;;;;;;125.72;45.83;;;;;;;;;;6288297;28;20788;-62
2023/12/10 05:21:20;;;;;;;139.63;48.55;;;;;;;;;;6271556;28;20053;-61
2023/12/10 05:24:21;;;;;;;149.20;50.08;;;;;;;;;;6275442;28;20048;-63
2023/12/10 05:27:22;;;;;;;145.77;50.03;;;;;;;;;;6287111;28;20052;-62
2023/12/10 05:30:23;;;;;;;148.02;51.50;;;;;;;;;;6288435;28;20471;-61
2023/12/10 05:33:23;;;;;;;152.43;51.00;;;;;;;;;;6284248;28;20580;-62
2023/12/10 05:36:24;;;;;;;144.63;50.70;;;;;;;;;;6276090;28;20076;-62
2023/12/10 05:39:25;;;;;;;141.25;48.97;;;;;;;;;;6260559;28;20510;-61
2023/12/10 05:42:26;;;;;;;136.48;48.65;;;;;;;;;;6282055;28;20085;-62
2023/12/10 05:45:27;;;;;;;131.05;45.55;;;;;;;;;;6285472;28;20049;-62
2023/12/10 05:48:28;;;;;;;130.07;46.20;;;;;;;;;;6286440;28;20036;-62
2023/12/10 05:51:29;;;;;;;119.35;43.10;;;;;;;;;;6265784;28;20048;-62
2023/12/10 05:54:30;;;;;;;120.32;43.85;;;;;;;;;;6283397;28;20045;-62
2023/12/10 05:57:30;;;;;;;134.50;46.85;;;;;;;;;;6284485;28;20047;-63
2023/12/10 06:00:31;;;;;;;129.15;46.33;;;;;;;;;;6285616;28;20044;-62
2023/12/10 06:03:32;;;;;;;128.38;45.15;;;;;;;;;;6262815;28;20507;-62
2023/12/10 06:06:33;;;;;;;122.75;44.03;;;;;;;;;;6258418;28;20120;-62
2023/12/10 06:09:33;;;;;;;127.85;42.97;;;;;;;;;;6257414;28;20045;-63
2023/12/10 06:12:34;;;;;;;125.38;44.50;;;;;;;;;;6264568;28;20049;-62
2023/12/10 06:15:35;;;;;;;133.88;46.70;;;;;;;;;;6261626;28;20048;-62
2023/12/10 06:18:36;;;;;;;119.47;44.58;;;;;;;;;;6270118;28;20048;-61
2023/12/10 06:21:37;;;;;;;125.78;45.80;;;;;;;;;;6274196;28;20061;-61
2023/12/10 06:24:38;;;;;;;133.05;47.20;;;;;;;;;;6262987;28;20049;-62
2023/12/10 06:27:39;;;;;;;140.65;50.58;;;;;;;;;;6260727;28;20068;-62
2023/12/10 06:30:40;;;;;;;137.48;48.17;;;;;;;;;;6259168;28;20047;-62
2023/12/10 06:33:43;;;;;;;121.88;47.38;;;;;;;;;;6255821;28;20468;-62
2023/12/10 06:36:43;;;;;;;127.78;46.65;;;;;;;;;;6258623;28;20047;-62
2023/12/10 06:39:44;;;;;;;123.10;45.13;;;;;;;;;;6260472;28;20049;-62
2023/12/10 06:42:45;;;;;;;110.93;43.35;;;;;;;;;;6256669;28;20415;-62
2023/12/10 06:45:47;;;;;;;126.38;44.95;;;;;;;;;;6259928;28;20477;-62
2023/12/10 06:48:48;;;;;;;109.28;42.03;;;;;;;;;;6258197;28;20045;-62
2023/12/10 06:51:48;;;;;;;123.53;44.20;;;;;;;;;;6263084;28;20051;-62
2023/12/10 06:54:49;;;;;;;116.28;47.70;;;;;;;;;;6259627;28;20074;-62
2023/12/10 06:57:50;;;;;;;116.22;44.25;;;;;;;;;;6256322;28;20849;-63
2023/12/10 07:00:51;;;;;;;120.78;46.25;;;;;;;;;;6259617;28;20167;-62
2023/12/10 07:03:51;;;;;;;129.23;45.47;;;;;;;;;;6289875;28;20048;-63
2023/12/10 07:06:52;;;;;;;124.20;46.10;;;;;;;;;;6285442;28;20044;-62
2023/12/10 07:09:53;;;;;;;121.80;43.47;;;;;;;;;;6288737;28;20059;-62
2023/12/10 07:12:54;;;;;;;120.78;45.25;;;;;;;;;;6270624;28;20037;-62
2023/12/10 07:15:55;;;;;;;129.73;45.97;;;;;;;;;;6285438;28;20069;-62
2023/12/10 07:18:55;;;;;;;149.73;52.83;;;;;;;;;;6266199;28;20194;-62
2023/12/10 07:21:56;;;;;;;148.35;53.42;;;;;;;;;;6261713;28;20053;-63
2023/12/10 07:24:58;;;;;;;148.52;54.63;;;;;;;;;;6264604;28;20128;-62
2023/12/10 07:27:59;;;;;;;154.27;57.25;;;;;;;;;;6261445;28;20044;-62
2023/12/10 07:31:00;;;;;;;157.02;57.83;;;;;;;;;;6261876;28;20051;-62
2023/12/10 07:34:00;;;;;;;149.98;55.80;;;;;;;;;;6266527;28;20045;-62
2023/12/10 07:37:01;;;;;;;153.98;57.50;;;;;;;;;;6259373;28;20045;-62
2023/12/10 07:40:02;;;;;;;151.52;56.22;;;;;;;;;;6264384;28;20121;-62
2023/12/10 07:43:05;;;;;;;143.45;56.00;;;;;;;;;;6261343;28;20072;-63
2023/12/10 07:46:05;;;;;;;153.77;55.03;;;;;;;;;;6260616;28;20112;-62
2023/12/10 07:49:06;;;;;;;156.32;56.28;;;;;;;;;;6267177;28;20036;-64
2023/12/10 07:52:07;;;;;;;157.07;57.65;;;;;;;;;;6265788;28;20044;-62
2023/12/10 07:55:08;;;;;;;158.57;57.78;;;;;;;;;;6261101;28;20127;-62
2023/12/10 07:58:09;;;;;;;164.23;61.88;;;;;;;;;;6264781;28;20080;-63
2023/12/10 08:01:10;;;;;;;186.90;70.97;;;;;;;;;;6261055;28;20079;-63
2023/12/10 08:04:11;;;;;;;153.88;60.17;;;;;;;;;;6266142;28;20052;-62
2023/12/10 08:07:11;;;;;;;154.57;56.03;;;;;;;;;;6256308;28;20045;-61
2023/12/10 08:10:13;;;;;;;153.50;54.35;;;;;;;;;;6258029;28;20049;-62
2023/12/10 08:13:13;;;;;;;142.10;52.10;;;;;;;;;;6254034;28;20124;-62
2023/12/10 08:16:14;;;;;;;129.55;49.83;;;;;;;;;;6255585;28;20048;-62
2023/12/10 08:19:16;;;;;;;136.65;51.03;;;;;;;;;;6251828;28;20044;-61
2023/12/10 08:22:16;;;;;;;165.70;56.03;;;;;;;;;;6257757;28;20091;-62
2023/12/10 08:25:17;;;;;;;162.65;60.92;;;;;;;;;;6255746;28;20042;-62
2023/12/10 08:28:18;;;;;;;145.82;53.85;;;;;;;;;;6250057;28;20045;-62
2023/12/10 08:31:19;;;;;;;143.52;51.95;;;;;;;;;;6258458;28;20451;-62
2023/12/10 08:34:19;;;;;;;124.63;47.15;;;;;;;;;;6253473;28;20041;-62
2023/12/10 08:37:20;;;;;;;120.45;47.42;;;;;;;;;;6248738;28;20468;-62
2023/12/10 08:40:21;;;;;;;108.05;42.15;;;;;;;;;;6256341;28;20045;-63
2023/12/10 08:43:21;;;;;;;110.18;39.13;;;;;;;;;;6257700;28;20123;-60
2023/12/10 08:46:22;;;;;;;98.72;38.45;;;;;;;;;;6251986;28;20120;-61
2023/12/10 08:49:23;;;;;;;88.30;33.03;;;;;;;;;;6277696;28;20443;-62
2023/12/10 08:52:23;;;;;;;81.65;30.88;;;;;;;;;;6270803;28;20056;-65
2023/12/10 08:55:24;;;;;;;75.78;28.20;;;;;;;;;;6261605;28;20057;-62
2023/12/10 08:58:27;;;;;;;80.10;28.58;;;;;;;;;;6267907;28;20484;-62
2023/12/10 09:01:28;;;;;;;83.75;30.73;;;;;;;;;;6267346;28;20056;-62
2023/12/10 09:04:28;;;;;;;81.07;29.05;;;;;;;;;;6257630;28;20103;-63
2023/12/10 09:07:29;;;;;;;88.85;31.38;;;;;;;;;;6260336;28;20048;-63
2023/12/10 09:10:30;;;;;;;90.28;31.17;;;;;;;;;;6268183;28;20037;-62
2023/12/10 09:13:32;;;;;;;89.53;30.42;;;;;;;;;;6282249;28;20138;-63
2023/12/10 09:16:32;;;;;;;80.35;28.75;;;;;;;;;;6265241;28;20048;-63
2023/12/10 09:19:34;;;;;;;89.72;32.58;;;;;;;;;;6284359;28;20049;-62
2023/12/10 09:22:35;;;;;;;89.32;30.40;;;;;;;;;;6286981;28;20049;-62
2023/12/10 09:25:36;;;;;;;86.63;32.78;;;;;;;;;;6290778;28;20048;-62
2023/12/10 09:28:37;;;;;;;83.97;32.65;;;;;;;;;;6287137;28;20059;-62
2023/12/10 09:31:38;;;;;;;96.47;34.35;;;;;;;;;;6288974;28;20048;-62
2023/12/10 09:34:40;;;;;;;81.22;31.20;;;;;;;;;;6289228;28;20060;-62
2023/12/10 09:37:41;;;;;;;;;;;;;;;;;;6292031;28;20032;-62
2023/12/10 09:40:41;;;;;;;89.10;30.48;;;;;;;;;;6287578;28;19931;-63
2023/12/10 09:43:42;;;;;;;88.82;31.52;;;;;;;;;;6287623;28;20063;-63
2023/12/10 09:46:43;;;;;;;96.15;35.25;;;;;;;;;;6287832;28;20041;-63
2023/12/10 09:49:45;;;;;;;98.28;35.15;;;;;;;;;;6289284;28;20063;-62
2023/12/10 09:52:46;;;;;;;100.28;36.70;;;;;;;;;;6289186;28;20127;-62
2023/12/10 09:55:48;;;;;;;93.05;35.75;;;;;;;;;;6288962;28;20044;-62
2023/12/10 09:58:48;;;;;;;97.43;37.05;;;;;;;;;;6287160;28;20049;-63
2023/12/10 10:01:50;;;;;;;102.15;36.95;;;;;;;;;;6288379;28;20093;-63
2023/12/10 10:04:51;;;;;;;111.80;37.50;;;;;;;;;;6287069;28;20036;-62
2023/12/10 10:07:51;;;;;;;99.80;36.78;;;;;;;;;;6288057;28;20573;-63
2023/12/10 10:10:52;;;;;;;100.80;36.97;;;;;;;;;;6286399;28;20063;-63
2023/12/10 10:13:53;;;;;;;118.55;41.30;;;;;;;;;;6287199;28;20044;-63
2023/12/10 10:16:54;;;;;;;137.38;45.13;;;;;;;;;;6289230;28;20431;-62
2023/12/10 10:19:55;;;;;;;128.52;47.08;;;;;;;;;;6288594;28;20063;-63
2023/12/10 10:22:56;;;;;;;144.00;51.93;;;;;;;;;;6288616;28;20139;-63
2023/12/10 10:25:57;;;;;;;146.23;52.78;;;;;;;;;;6285755;28;20816;-63
2023/12/10 10:28:57;;;;;;;125.28;46.53;;;;;;;;;;6288860;28;20055;-63
2023/12/10 10:31:58;;;;;;;99.93;36.67;;;;;;;;;;6283618;28;20052;-63
2023/12/10 10:35:03;;;;;;;88.18;32.92;;;;;;;;;;6289443;28;20068;-63
2023/12/10 10:38:04;;;;;;;67.13;24.48;;;;;;;;;;6288013;28;20055;-64
2023/12/10 10:41:05;;;;;;;53.33;19.63;;;;;;;;;;6284939;28;20072;-63
2023/12/10 10:44:06;;;;;;;49.63;18.05;;;;;;;;;;6288855;28;20067;-63
2023/12/10 10:47:07;;;;;;;40.40;14.52;;;;;;;;;;6288451;28;20441;-63
2023/12/10 10:50:10;;;;;;;42.65;14.68;;;;;;;;;;6246973;28;20143;-63
2023/12/10 10:53:12;;;;;;;33.95;12.30;;;;;;;;;;6290356;28;20135;-63
2023/12/10 10:56:14;;;;;;;29.00;11.55;;;;;;;;;;6287747;28;20342;-63
2023/12/10 10:59:31;;;;;;;30.00;11.68;;;;;;;;;;6283308;28;20051;-63
2023/12/10 11:02:32;;;;;;;28.98;10.80;;;;;;;;;;6280066;28;20071;-63
2023/12/10 11:05:34;;;;;;;33.03;11.93;;;;;;;;;;6288363;28;20045;-63
2023/12/10 11:08:35;;;;;;;27.80;11.23;;;;;;;;;;6286248;28;20086;-63
2023/12/10 11:11:39;;;;;;;28.80;11.52;;;;;;;;;;6287978;28;20052;-63
2023/12/10 11:14:40;;;;;;;28.73;11.57;;;;;;;;;;6287096;28;20056;-63
2023/12/10 11:17:50;;;;;;;26.58;10.13;;;;;;;;;;6286975;28;20560;-63
2023/12/10 11:20:51;;;;;;;29.00;11.55;;;;;;;;;;6287259;28;20064;-63
2023/12/10 11:23:51;;;;;;;27.63;10.35;;;;;;;;;;6287567;28;20058;-63
2023/12/10 11:26:52;;;;;;;26.50;10.55;;;;;;;;;;6287155;28;20098;-63
2023/12/10 11:29:53;;;;;;;31.27;12.23;;;;;;;;;;6287029;28;20053;-63
2023/12/10 11:32:54;;;;;;;31.10;11.45;;;;;;;;;;6288067;28;20614;-63
2023/12/10 11:35:59;;;;;;;29.42;11.52;;;;;;;;;;6287928;28;20048;-63
2023/12/10 11:39:00;;;;;;;28.92;11.65;;;;;;;;;;6287357;28;20044;-63
2023/12/10 11:42:01;;;;;;;30.65;12.32;;;;;;;;;;6285541;28;20521;-63
2023/12/10 11:45:04;;;;;;;37.03;16.50;;;;;;;;;;6288348;28;20395;-63
2023/12/10 11:48:05;;;;;;;43.65;20.20;;;;;;;;;;6290394;28;20090;-63
2023/12/10 11:51:06;;;;;;;39.35;17.75;;;;;;;;;;6288576;28;20045;-63
2023/12/10 11:54:07;;;;;;;31.80;14.55;;;;;;;;;;6292019;28;20049;-63
2023/12/10 11:57:08;;;;;;;34.97;14.17;;;;;;;;;;6291474;28;20048;-63
2023/12/10 12:00:13;;;;;;;32.97;13.90;;;;;;;;;;6289490;28;20735;-63
2023/12/10 12:03:14;;;;;;;27.95;12.35;;;;;;;;;;6291033;28;20097;-63
2023/12/10 12:06:14;;;;;;;29.50;12.20;;;;;;;;;;6293472;28;20503;-62
2023/12/10 12:09:22;;;;;;;29.50;12.60;;;;;;;;;;6290368;28;20068;-63
2023/12/10 12:12:23;;;;;;;30.73;11.05;;;;;;;;;;6291857;28;20499;-63
2023/12/10 12:15:25;;;;;;;31.35;12.65;;;;;;;;;;6289728;28;20059;-62
2023/12/10 12:18:26;;;;;;;27.45;11.40;;;;;;;;;;6290813;28;20130;-63
2023/12/10 12:21:27;;;;;;;65.00;21.23;;;;;;;;;;6291726;28;20491;-62
2023/12/10 12:24:28;;;;;;;43.00;17.88;;;;;;;;;;6290009;28;20052;-62
2023/12/10 12:27:28;;;;;;;34.05;14.95;;;;;;;;;;6289842;28;20044;-62
2023/12/10 12:30:29;;;;;;;40.78;19.23;;;;;;;;;;6289261;28;20518;-63
2023/12/10 12:33:30;;;;;;;35.20;16.52;;;;;;;;;;6277712;28;20071;-62
2023/12/10 12:36:31;;;;;;;37.38;17.48;;;;;;;;;;6291633;28;20512;-62
2023/12/10 12:39:31;;;;;;;30.95;15.30;;;;;;;;;;6291850;28;21058;-62
2023/12/10 12:42:32;;;;;;;30.90;12.25;;;;;;;;;;6293736;28;20056;-62
2023/12/10 12:45:33;;;;;;;32.65;14.07;;;;;;;;;;6287819;28;20051;-62
2023/12/10 12:48:33;;;;;;;27.80;11.48;;;;;;;;;;6289706;28;20048;-62
2023/12/10 12:51:35;;;;;;;28.42;10.90;;;;;;;;;;6290162;28;20554;-63
2023/12/10 12:54:36;;;;;;;27.38;12.25;;;;;;;;;;6288739;28;20049;-63
2023/12/10 12:57:37;;;;;;;42.58;17.60;;;;;;;;;;6288533;28;20055;-63
2023/12/10 13:00:38;;;;;;;31.02;13.50;;;;;;;;;;6289093;28;20064;-62
2023/12/10 13:03:38;;;;;;;41.33;19.85;;;;;;;;;;6290304;28;20056;-63
2023/12/10 13:06:39;;;;;;;31.42;14.25;;;;;;;;;;6287723;28;20064;-62
2023/12/10 13:09:41;;;;;;;27.15;11.18;;;;;;;;;;6289956;28;20123;-63
2023/12/10 13:12:41;;;;;;;29.50;12.23;;;;;;;;;;6289803;28;20074;-62
2023/12/10 13:15:42;;;;;;;32.15;12.07;;;;;;;;;;6267080;28;20049;-62
2023/12/10 13:18:43;;;;;;;33.17;11.90;;;;;;;;;;6280373;28;20053;-62
2023/12/10 13:21:44;;;;;;;44.40;15.10;;;;;;;;;;6290099;28;20477;-62
2023/12/10 13:24:45;;;;;;;35.17;13.07;;;;;;;;;;6287891;28;20506;-62
2023/12/10 13:27:47;;;;;;;50.17;18.60;;;;;;;;;;6289337;28;20036;-62
2023/12/10 13:30:47;;;;;;;45.67;18.55;;;;;;;;;;6281776;28;20400;-62
2023/12/10 13:33:48;;;;;;;57.90;24.20;;;;;;;;;;6288241;28;20174;-62
2023/12/10 13:36:49;;;;;;;48.92;19.85;;;;;;;;;;6289452;28;20048;-62
2023/12/10 13:39:50;;;;;;;45.17;17.65;;;;;;;;;;6287666;28;20048;-62
2023/12/10 13:42:50;;;;;;;63.92;24.17;;;;;;;;;;6287909;28;20049;-62
2023/12/10 13:45:51;;;;;;;57.22;20.33;;;;;;;;;;6289460;28;20094;-62
2023/12/10 13:48:52;;;;;;;200.70;65.20;;;;;;;;;;6289337;28;20040;-63
2023/12/10 13:51:53;;;;;;;202.18;67.70;;;;;;;;;;6289568;28;20127;-61
2023/12/10 13:54:57;;;;;;;84.05;29.60;;;;;;;;;;6289220;28;20087;-62
2023/12/10 13:57:58;;;;;;;86.05;33.03;;;;;;;;;;6286333;28;20407;-62
2023/12/10 14:01:00;;;;;;;61.42;25.13;;;;;;;;;;6288577;28;20050;-62
2023/12/10 14:04:02;;;;;;;41.47;16.98;;;;;;;;;;6288322;28;20048;-63
2023/12/10 14:07:03;;;;;;;46.63;20.90;;;;;;;;;;6289389;28;20052;-62
2023/12/10 14:10:04;;;;;;;54.30;20.42;;;;;;;;;;6285866;28;20045;-63
2023/12/10 14:13:05;;;;;;;41.75;16.15;;;;;;;;;;6288820;28;20051;-61
2023/12/10 14:16:06;;;;;;;41.22;18.63;;;;;;;;;;6289907;28;20528;-63
2023/12/10 14:19:07;;;;;;;37.38;16.52;;;;;;;;;;6288158;28;20444;-61
2023/12/10 14:22:08;;;;;;;41.95;16.75;;;;;;;;;;6287003;28;20097;-62
2023/12/10 14:25:08;;;;;;;63.15;23.13;;;;;;;;;;6288073;28;20131;-62
2023/12/10 14:28:09;;;;;;;49.00;21.60;;;;;;;;;;6288496;28;20047;-62
2023/12/10 14:31:11;;;;;;;43.45;17.58;;;;;;;;;;6287238;28;20388;-62
2023/12/10 14:34:12;;;;;;;45.28;18.17;;;;;;;;;;6288881;28;20063;-62
2023/12/10 14:37:12;;;;;;;47.95;18.23;;;;;;;;;;6286636;28;20490;-62
2023/12/10 14:40:13;;;;;;;49.42;19.75;;;;;;;;;;6286527;28;20129;-62
2023/12/10 14:43:15;;;;;;;53.08;20.02;;;;;;;;;;6288915;28;20044;-63
2023/12/10 14:46:16;;;;;;;46.40;16.58;;;;;;;;;;6287111;28;20044;-63
2023/12/10 14:49:16;;;;;;;48.60;19.48;;;;;;;;;;6285542;28;20044;-61
2023/12/10 14:52:17;;;;;;;42.50;16.67;;;;;;;;;;6286260;28;20049;-61
2023/12/10 14:55:18;;;;;;;46.15;16.85;;;;;;;;;;6285599;28;20097;-62
2023/12/10 14:58:19;;;;;;;64.18;22.80;;;;;;;;;;6287110;28;20059;-62
2023/12/10 15:01:20;;;;;;;56.55;21.95;;;;;;;;;;6287248;28;20113;-62
2023/12/10 15:04:23;;;;;;;49.58;18.27;;;;;;;;;;6275795;28;20095;-62
2023/12/10 15:07:24;;;;;;;55.13;18.80;;;;;;;;;;6236796;28;20072;-62
2023/12/10 15:10:25;;;;;;;78.70;27.80;;;;;;;;;;6244010;28;20473;-63
2023/12/10 15:13:25;;;;;;;50.53;19.02;;;;;;;;;;6238688;28;20041;-61
2023/12/10 15:16:26;;;;;;;54.42;21.67;;;;;;;;;;6239267;28;20056;-61
2023/12/10 15:19:27;;;;;;;51.25;19.70;;;;;;;;;;6240621;28;20048;-62
2023/12/10 15:22:27;;;;;;;63.40;25.17;;;;;;;;;;6239837;28;20479;-61
2023/12/10 15:25:28;;;;;;;61.78;25.60;;;;;;;;;;6241310;28;20510;-61
2023/12/10 15:28:31;;;;;;;58.28;21.67;;;;;;;;;;6246973;28;20828;-61
2023/12/10 15:31:32;;;;;;;53.63;18.13;;;;;;;;;;6246369;28;20095;-61
2023/12/10 15:34:33;;;;;;;45.25;18.30;;;;;;;;;;6243170;28;20551;-61
2023/12/10 15:37:33;;;;;;;48.00;17.48;;;;;;;;;;6243625;28;20049;-61
2023/12/10 15:40:34;;;;;;;52.28;18.92;;;;;;;;;;6246497;28;20060;-61
2023/12/10 15:43:35;;;;;;;57.67;17.35;;;;;;;;;;6251790;28;20057;-60
2023/12/10 15:46:36;;;;;;;48.50;17.67;;;;;;;;;;6248087;28;20076;-60
2023/12/10 15:49:37;;;;;;;58.88;18.30;;;;;;;;;;6243761;28;20081;-60
2023/12/10 15:52:38;;;;;;;57.85;17.40;;;;;;;;;;6244102;28;20061;-60
2023/12/10 15:55:39;;;;;;;50.63;16.15;;;;;;;;;;6245523;28;20459;-61
2023/12/10 15:58:40;;;;;;;262.70;72.17;;;;;;;;;;6244731;28;20495;-61
2023/12/10 16:01:41;;;;;;;93.22;31.00;;;;;;;;;;6244569;28;20045;-62
2023/12/10 16:04:42;;;;;;;218.90;55.45;;;;;;;;;;6243225;28;20041;-62
2023/12/10 16:07:43;;;;;;;120.57;32.67;;;;;;;;;;6247208;28;20064;-61
2023/12/10 16:10:44;;;;;;;118.38;35.00;;;;;;;;;;6249294;28;20063;-61
2023/12/10 16:13:44;;;;;;;100.78;40.40;;;;;;;;;;6244004;28;20045;-61
2023/12/10 16:16:45;;;;;;;81.55;26.00;;;;;;;;;;6243448;28;20107;-62
2023/12/10 16:19:48;;;;;;;138.70;38.17;;;;;;;;;;6246250;28;20057;-62
2023/12/10 16:22:50;;;;;;;170.50;45.22;;;;;;;;;;6243345;28;20060;-61
2023/12/10 16:25:50;;;;;;;120.97;35.03;;;;;;;;;;6241703;28;20053;-61
2023/12/10 16:28:53;;;;;;;111.80;34.42;;;;;;;;;;6246690;28;20049;-61
2023/12/10 16:31:53;;;;;;;101.75;30.40;;;;;;;;;;6246109;28;20064;-61
2023/12/10 16:34:54;;;;;;;102.18;31.63;;;;;;;;;;6244798;28;20049;-62
2023/12/10 16:37:56;;;;;;;81.50;27.17;;;;;;;;;;6246019;28;20060;-56
2023/12/10 16:40:57;;;;;;;63.67;20.95;;;;;;;;;;6249783;28;20055;-62
2023/12/10 16:44:00;;;;;;;69.28;22.80;;;;;;;;;;6243881;28;20048;-61
2023/12/10 16:47:00;;;;;;;59.47;19.92;;;;;;;;;;6241415;28;20049;-61
2023/12/10 16:50:02;;;;;;;76.95;26.75;;;;;;;;;;6244794;28;20162;-61
2023/12/10 16:53:03;;;;;;;65.45;21.90;;;;;;;;;;6246122;28;20102;-62
2023/12/10 16:56:04;;;;;;;62.78;20.10;;;;;;;;;;6242204;28;20057;-61
2023/12/10 16:59:04;;;;;;;63.70;21.77;;;;;;;;;;6244310;28;20523;-63
2023/12/10 17:02:05;;;;;;;87.15;28.70;;;;;;;;;;6247469;28;20123;-63
2023/12/10 17:05:06;;;;;;;117.93;34.55;;;;;;;;;;6242832;28;20056;-61
2023/12/10 17:08:07;;;;;;;97.93;31.70;;;;;;;;;;6242926;28;20049;-61
2023/12/10 17:11:08;;;;;;;75.20;25.77;;;;;;;;;;6242553;28;20056;-61
2023/12/10 17:14:09;;;;;;;75.75;28.40;;;;;;;;;;6251307;28;20057;-61
2023/12/10 17:17:10;;;;;;;93.43;35.17;;;;;;;;;;6239386;28;20037;-62
2023/12/10 17:20:10;;;;;;;71.75;25.60;;;;;;;;;;6239807;28;20415;-61
2023/12/10 17:23:11;;;;;;;71.70;23.88;;;;;;;;;;6242410;28;20037;-61
2023/12/10 17:26:12;;;;;;;72.07;22.38;;;;;;;;;;6240784;28;20087;-61